SARC/CNQ METAR and TAF weather

Enter ICAO airport designator
Station Type Date Time Source
SARC METAR 2019/10/18 11:10 UTC NOAA

SARC 181110Z 18004KT 9999 TS SCT007 FEW050CB OVC060 18/17 Q1017 RMK CB OBS TO NW


Station Type Date Time Source
SARC Decoded METAR 2019/10/18 11:10 UTC NOAA

Corrientes Aero., Argentina (SARC) 27-27S 058-46W 62M
Oct 18, 2019 - 07:10 AM EDT / 2019.10.18 1110 UTC
Wind: from the S (180 degrees) at 5 MPH (4 KT):0
Visibility: greater than 7 mile(s):0
Sky conditions: overcast
Weather: thunder; Cumulonimbus clouds observed
Temperature: 64 F (18 C)
Dew Point: 62 F (17 C)
Relative Humidity: 93%
Pressure (altimeter): 30.03 in. Hg (1017 hPa)
ob: SARC 181110Z 18004KT 9999 TS SCT007 FEW050CB OVC060 18/17 Q1017 RMK CB OBS TO NW
cycle: 11

Station Type Date Time Source
SARC TAF 2019/09/11 09:59 UTC NOAA

TAF
AMD SARC 110830Z 1109/1206 18010KT 6000 TSRA BKN015 FEW045CB TX20/1118Z TN15/1110Z PROB30 1110/1112 8000 TSRA
BECMG 1113/1115 BKN020 BKN100 PROB30 1116/1120 7000 -RA
BECMG 1122/1124 SCT020 SCT100

Example: see airport list